sensor_id;sensor_type;location;lat;lon;timestamp;temperature;humidity
50690;DHT22;54375;48.298;11.238;2023-05-14T00:05:20;10.50;98.80
50690;DHT22;54375;48.298;11.238;2023-05-14T00:20:22;10.50;98.60
50690;DHT22;54375;48.298;11.238;2023-05-14T00:35:25;10.60;98.50
50690;DHT22;54375;48.298;11.238;2023-05-14T00:50:27;10.50;98.30
50690;DHT22;54375;48.298;11.238;2023-05-14T01:05:38;10.50;98.00
50690;DHT22;54375;48.298;11.238;2023-05-14T01:20:43;10.40;97.90
50690;DHT22;54375;48.298;11.238;2023-05-14T01:35:47;10.20;97.80
50690;DHT22;54375;48.298;11.238;2023-05-14T01:50:51;10.10;97.80
50690;DHT22;54375;48.298;11.238;2023-05-14T02:05:54;10.00;97.80
50690;DHT22;54375;48.298;11.238;2023-05-14T02:20:56;10.00;97.70
50690;DHT22;54375;48.298;11.238;2023-05-14T02:35:59;10.00;97.90
50690;DHT22;54375;48.298;11.238;2023-05-14T02:51:02;9.90;97.90
50690;DHT22;54375;48.298;11.238;2023-05-14T03:06:05;9.70;98.20
50690;DHT22;54375;48.298;11.238;2023-05-14T03:21:08;9.70;98.30
50690;DHT22;54375;48.298;11.238;2023-05-14T03:36:11;9.70;98.30
50690;DHT22;54375;48.298;11.238;2023-05-14T03:51:13;9.70;98.40
50690;DHT22;54375;48.298;11.238;2023-05-14T04:06:16;9.60;98.30
50690;DHT22;54375;48.298;11.238;2023-05-14T04:21:19;9.60;98.30
50690;DHT22;54375;48.298;11.238;2023-05-14T04:36:21;9.70;98.60
50690;DHT22;54375;48.298;11.238;2023-05-14T04:51:23;9.90;98.10
50690;DHT22;54375;48.298;11.238;2023-05-14T05:06:26;10.10;97.60
50690;DHT22;54375;48.298;11.238;2023-05-14T05:21:28;10.10;97.30
50690;DHT22;54375;48.298;11.238;2023-05-14T05:36:30;10.10;97.30
50690;DHT22;54375;48.298;11.238;2023-05-14T05:51:32;10.20;97.40
50690;DHT22;54375;48.298;11.238;2023-05-14T06:06:35;10.30;97.20
50690;DHT22;54375;48.298;11.238;2023-05-14T06:21:37;10.40;96.90
50690;DHT22;54375;48.298;11.238;2023-05-14T06:36:39;10.60;96.80
50690;DHT22;54375;48.298;11.238;2023-05-14T06:51:42;10.50;96.90
50690;DHT22;54375;48.298;11.238;2023-05-14T07:06:44;10.60;96.70
50690;DHT22;54375;48.298;11.238;2023-05-14T07:21:46;10.90;96.40
50690;DHT22;54375;48.298;11.238;2023-05-14T07:36:48;10.90;96.30
50690;DHT22;54375;48.298;11.238;2023-05-14T07:51:51;10.80;96.40
50690;DHT22;54375;48.298;11.238;2023-05-14T08:06:53;11.10;96.00
50690;DHT22;54375;48.298;11.238;2023-05-14T08:21:55;11.40;94.90
50690;DHT22;54375;48.298;11.238;2023-05-14T08:36:57;11.90;94.40
50690;DHT22;54375;48.298;11.238;2023-05-14T08:52:00;12.00;92.80
50690;DHT22;54375;48.298;11.238;2023-05-14T09:07:03;11.90;92.60
50690;DHT22;54375;48.298;11.238;2023-05-14T09:22:08;11.60;93.20
50690;DHT22;54375;48.298;11.238;2023-05-14T09:37:10;12.00;93.60
50690;DHT22;54375;48.298;11.238;2023-05-14T09:52:12;12.80;91.50
50690;DHT22;54375;48.298;11.238;2023-05-14T10:07:16;12.40;92.10
50690;DHT22;54375;48.298;11.238;2023-05-14T10:22:22;12.40;91.80
50690;DHT22;54375;48.298;11.238;2023-05-14T10:37:25;12.40;91.10
50690;DHT22;54375;48.298;11.238;2023-05-14T10:52:28;12.20;92.10
50690;DHT22;54375;48.298;11.238;2023-05-14T11:07:31;13.50;88.00
50690;DHT22;54375;48.298;11.238;2023-05-14T11:22:34;14.60;85.30
50690;DHT22;54375;48.298;11.238;2023-05-14T11:37:36;15.40;83.10
50690;DHT22;54375;48.298;11.238;2023-05-14T11:52:40;17.60;77.60
50690;DHT22;54375;48.298;11.238;2023-05-14T12:07:44;17.00;73.60
50690;DHT22;54375;48.298;11.238;2023-05-14T12:22:46;17.80;72.90
50690;DHT22;54375;48.298;11.238;2023-05-14T12:37:49;17.80;70.60
50690;DHT22;54375;48.298;11.238;2023-05-14T12:52:51;17.90;72.30
50690;DHT22;54375;48.298;11.238;2023-05-14T13:07:53;18.00;71.60
50690;DHT22;54375;48.298;11.238;2023-05-14T13:22:56;19.50;69.00
50690;DHT22;54375;48.298;11.238;2023-05-14T13:37:59;21.40;62.40
50690;DHT22;54375;48.298;11.238;2023-05-14T13:53:01;20.90;58.60
50690;DHT22;54375;48.298;11.238;2023-05-14T14:08:03;20.00;62.90
50690;DHT22;54375;48.298;11.238;2023-05-14T14:23:06;20.70;60.90
50690;DHT22;54375;48.298;11.238;2023-05-14T14:38:08;21.50;57.70
50690;DHT22;54375;48.298;11.238;2023-05-14T14:53:10;20.00;59.70
50690;DHT22;54375;48.298;11.238;2023-05-14T15:08:12;19.70;58.60
50690;DHT22;54375;48.298;11.238;2023-05-14T15:23:14;20.00;58.80
50690;DHT22;54375;48.298;11.238;2023-05-14T15:38:16;18.20;68.60
50690;DHT22;54375;48.298;11.238;2023-05-14T15:53:19;18.20;70.40
50690;DHT22;54375;48.298;11.238;2023-05-14T16:08:21;18.90;66.90
50690;DHT22;54375;48.298;11.238;2023-05-14T16:23:24;15.40;82.90
50690;DHT22;54375;48.298;11.238;2023-05-14T16:38:26;13.50;91.00
50690;DHT22;54375;48.298;11.238;2023-05-14T16:53:28;12.30;94.80
50690;DHT22;54375;48.298;11.238;2023-05-14T17:08:30;11.70;95.90
50690;DHT22;54375;48.298;11.238;2023-05-14T17:23:33;11.50;96.50
50690;DHT22;54375;48.298;11.238;2023-05-14T17:38:36;11.30;97.80
50690;DHT22;54375;48.298;11.238;2023-05-14T17:53:38;11.30;98.10
50690;DHT22;54375;48.298;11.238;2023-05-14T18:08:40;11.20;98.20
50690;DHT22;54375;48.298;11.238;2023-05-14T18:23:42;11.10;98.20
50690;DHT22;54375;48.298;11.238;2023-05-14T18:38:45;11.20;98.10
50690;DHT22;54375;48.298;11.238;2023-05-14T18:53:47;11.40;97.80
50690;DHT22;54375;48.298;11.238;2023-05-14T19:08:49;11.30;97.20
50690;DHT22;54375;48.298;11.238;2023-05-14T19:23:51;11.30;97.00
50690;DHT22;54375;48.298;11.238;2023-05-14T19:38:54;11.00;96.90
50690;DHT22;54375;48.298;11.238;2023-05-14T19:53:56;10.70;97.80
50690;DHT22;54375;48.298;11.238;2023-05-14T20:08:59;10.50;98.60
50690;DHT22;54375;48.298;11.238;2023-05-14T20:24:02;10.30;99.10
50690;DHT22;54375;48.298;11.238;2023-05-14T20:39:05;10.10;99.20
50690;DHT22;54375;48.298;11.238;2023-05-14T20:54:07;10.00;98.70
50690;DHT22;54375;48.298;11.238;2023-05-14T21:09:09;9.90;98.50
50690;DHT22;54375;48.298;11.238;2023-05-14T21:24:11;9.70;99.10
50690;DHT22;54375;48.298;11.238;2023-05-14T21:39:14;9.60;99.60
50690;DHT22;54375;48.298;11.238;2023-05-14T21:54:16;9.40;99.90
50690;DHT22;54375;48.298;11.238;2023-05-14T22:09:18;9.20;99.90
50690;DHT22;54375;48.298;11.238;2023-05-14T22:24:20;8.90;99.90
50690;DHT22;54375;48.298;11.238;2023-05-14T22:39:23;8.80;99.90
50690;DHT22;54375;48.298;11.238;2023-05-14T22:54:25;8.60;99.90
50690;DHT22;54375;48.298;11.238;2023-05-14T23:09:27;8.40;99.90
50690;DHT22;54375;48.298;11.238;2023-05-14T23:24:30;8.30;99.90
50690;DHT22;54375;48.298;11.238;2023-05-14T23:39:33;8.30;99.90
50690;DHT22;54375;48.298;11.238;2023-05-14T23:54:35;8.40;99.90
